Terminal Aerodrome Forecast
Issued by NWS Brownsville, TX

Home | Current Version | Previous Version | Text Only | Print | Product List | Glossary On
Versions: 1 2 3 4 5 6 7 8 9 10 11 12 13 14 15
712
FTUS44 KBRO 201720
TAFBRO
TAF
KBRO 201720Z 2018/2118 16012KT P6SM SCT040
     FM210200 15006KT P6SM FEW025
     FM211200 16007KT P6SM SCT250
     FM211700 16012G18KT P6SM FEW250=

USA.gov is the U.S. government's official web portal to all federal, state and local government web resources and services.